Salem Township, Maine
Current Conditions -  °F | °C
As of 11:35 PM on Monday 20 Oct 2014 (Local Time) from KWVL Reporting Station
Overcast Overcast  
Wind Chill:   Ceiling: 9000
Heat Index:   Visibility: 10mi
Dew Point: -1°   Wind: 0mph
Humidity: 70%   Direction: NA
Pressure: 29.96"   Gusts: NA
Location:  44.8564°N, 70.2117°W
Report Text: KWVL 210335Z 00000KT 10SM SCT060 OVC090 04/M01 A2996 RMK AO1
Loading
Personal Weather Stations






























Interactive Weather Map
Tropical Storm Tracking
New forecast layout! Learn more

10-Day Weather Forecast

Advertisements
Track Severe Weather on mobile